KIWD/IWD METAR and TAF weather

Enter ICAO airport designator
Station Type Date Time Source
KIWD METAR 2024/04/15 09:56 UTC NOAA

KIWD 150956Z AUTO 24005KT 10SM CLR 02/M02 A2997 RMK AO2 SLP154 T00221022 FZRANO


Station Type Date Time Source
KIWD Decoded METAR 2024/04/15 09:56 UTC NOAA

Ironwood, Gogebic-Iron County Airport, MI, United States (KIWD) 46-32N 090-08W
Apr 15, 2024 - 05:56 AM EDT / 2024.04.15 0956 UTC
Wind: from the WSW (240 degrees) at 6 MPH (5 KT):0
Visibility: 10 mile(s):0
Sky conditions: clear
Temperature: 36.0 F (2.2 C)
Dew Point: 28.0 F (-2.2 C)
Relative Humidity: 72%
Pressure (altimeter): 29.97 in. Hg (1014 hPa)
ob: KIWD 150956Z AUTO 24005KT 10SM CLR 02/M02 A2997 RMK AO2 SLP154 T00221022 FZRANO
cycle: 10

Station Type Date Time Source
KIWD TAF 2024/04/15 07:18 UTC NOAA